sensor_id;sensor_type;location;lat;lon;timestamp;temperature;humidity
47540;DHT22;33280;52.152;21.052;2023-05-25T00:02:26;13.60;99.90
47540;DHT22;33280;52.152;21.052;2023-05-25T00:04:53;13.50;99.90
47540;DHT22;33280;52.152;21.052;2023-05-25T00:07:20;13.50;99.90
47540;DHT22;33280;52.152;21.052;2023-05-25T00:09:47;13.40;99.90
47540;DHT22;33280;52.152;21.052;2023-05-25T00:12:14;13.30;99.90
47540;DHT22;33280;52.152;21.052;2023-05-25T00:14:42;13.30;99.90
47540;DHT22;33280;52.152;21.052;2023-05-25T00:17:09;13.20;99.90
47540;DHT22;33280;52.152;21.052;2023-05-25T00:19:37;13.20;99.90
47540;DHT22;33280;52.152;21.052;2023-05-25T00:22:09;13.30;99.90
47540;DHT22;33280;52.152;21.052;2023-05-25T00:24:37;13.30;99.90
47540;DHT22;33280;52.152;21.052;2023-05-25T00:27:05;13.10;99.90
47540;DHT22;33280;52.152;21.052;2023-05-25T00:29:34;13.20;99.90
47540;DHT22;33280;52.152;21.052;2023-05-25T00:32:02;13.10;99.90
47540;DHT22;33280;52.152;21.052;2023-05-25T00:34:29;13.00;99.90
47540;DHT22;33280;52.152;21.052;2023-05-25T00:36:56;13.10;99.90
47540;DHT22;33280;52.152;21.052;2023-05-25T00:39:23;13.10;99.90
47540;DHT22;33280;52.152;21.052;2023-05-25T00:41:50;13.10;99.90
47540;DHT22;33280;52.152;21.052;2023-05-25T00:44:17;13.10;99.90
47540;DHT22;33280;52.152;21.052;2023-05-25T00:46:49;13.20;99.90
47540;DHT22;33280;52.152;21.052;2023-05-25T00:49:18;13.20;99.90
47540;DHT22;33280;52.152;21.052;2023-05-25T00:51:46;13.10;99.90
47540;DHT22;33280;52.152;21.052;2023-05-25T00:54:17;13.10;99.90
47540;DHT22;33280;52.152;21.052;2023-05-25T00:56:49;13.10;99.90
47540;DHT22;33280;52.152;21.052;2023-05-25T00:59:23;13.10;99.90
47540;DHT22;33280;52.152;21.052;2023-05-25T01:01:50;13.10;99.90
47540;DHT22;33280;52.152;21.052;2023-05-25T01:04:20;13.10;99.90
47540;DHT22;33280;52.152;21.052;2023-05-25T01:06:49;13.20;99.90
47540;DHT22;33280;52.152;21.052;2023-05-25T01:09:21;13.10;99.90
47540;DHT22;33280;52.152;21.052;2023-05-25T01:11:54;13.10;99.90
47540;DHT22;33280;52.152;21.052;2023-05-25T01:14:22;13.20;99.90
47540;DHT22;33280;52.152;21.052;2023-05-25T01:16:51;13.20;99.90
47540;DHT22;33280;52.152;21.052;2023-05-25T01:19:18;13.20;99.90
47540;DHT22;33280;52.152;21.052;2023-05-25T01:21:54;13.10;99.90
47540;DHT22;33280;52.152;21.052;2023-05-25T01:24:48;13.10;99.90
47540;DHT22;33280;52.152;21.052;2023-05-25T01:27:26;13.00;99.90
47540;DHT22;33280;52.152;21.052;2023-05-25T01:29:59;13.00;99.90
47540;DHT22;33280;52.152;21.052;2023-05-25T01:32:27;13.10;99.90
47540;DHT22;33280;52.152;21.052;2023-05-25T01:34:55;13.20;99.90
47540;DHT22;33280;52.152;21.052;2023-05-25T01:37:23;13.20;99.90
47540;DHT22;33280;52.152;21.052;2023-05-25T01:39:52;13.20;99.90
47540;DHT22;33280;52.152;21.052;2023-05-25T01:42:20;13.20;99.90
47540;DHT22;33280;52.152;21.052;2023-05-25T01:44:47;13.30;99.90
47540;DHT22;33280;52.152;21.052;2023-05-25T01:47:20;13.20;99.90
47540;DHT22;33280;52.152;21.052;2023-05-25T01:50:11;13.30;99.90
47540;DHT22;33280;52.152;21.052;2023-05-25T01:52:44;13.30;99.90
47540;DHT22;33280;52.152;21.052;2023-05-25T01:55:14;13.40;99.90
47540;DHT22;33280;52.152;21.052;2023-05-25T01:57:45;13.20;99.90
47540;DHT22;33280;52.152;21.052;2023-05-25T02:00:16;13.20;99.90
47540;DHT22;33280;52.152;21.052;2023-05-25T02:02:47;13.30;99.90
47540;DHT22;33280;52.152;21.052;2023-05-25T02:05:19;13.40;99.90
47540;DHT22;33280;52.152;21.052;2023-05-25T02:07:46;13.30;99.90
47540;DHT22;33280;52.152;21.052;2023-05-25T02:10:13;13.30;99.90
47540;DHT22;33280;52.152;21.052;2023-05-25T02:12:40;13.30;99.90
47540;DHT22;33280;52.152;21.052;2023-05-25T02:15:07;13.40;99.90
47540;DHT22;33280;52.152;21.052;2023-05-25T02:17:35;13.30;99.90
47540;DHT22;33280;52.152;21.052;2023-05-25T02:20:04;13.30;99.90
47540;DHT22;33280;52.152;21.052;2023-05-25T02:22:34;13.30;99.90
47540;DHT22;33280;52.152;21.052;2023-05-25T02:25:03;13.20;99.90
47540;DHT22;33280;52.152;21.052;2023-05-25T02:27:30;13.20;99.90
47540;DHT22;33280;52.152;21.052;2023-05-25T02:29:57;13.10;99.90
47540;DHT22;33280;52.152;21.052;2023-05-25T02:32:24;13.10;99.90
47540;DHT22;33280;52.152;21.052;2023-05-25T02:34:51;13.00;99.90
47540;DHT22;33280;52.152;21.052;2023-05-25T02:37:18;13.20;99.90
47540;DHT22;33280;52.152;21.052;2023-05-25T02:39:45;13.20;99.90
47540;DHT22;33280;52.152;21.052;2023-05-25T02:42:12;13.10;99.90
47540;DHT22;33280;52.152;21.052;2023-05-25T02:44:39;13.20;99.90
47540;DHT22;33280;52.152;21.052;2023-05-25T02:47:06;13.10;99.90
47540;DHT22;33280;52.152;21.052;2023-05-25T02:49:33;13.20;99.90
47540;DHT22;33280;52.152;21.052;2023-05-25T02:52:00;13.20;99.90
47540;DHT22;33280;52.152;21.052;2023-05-25T02:54:28;13.20;99.90
47540;DHT22;33280;52.152;21.052;2023-05-25T02:56:54;13.20;99.90
47540;DHT22;33280;52.152;21.052;2023-05-25T02:59:22;13.30;99.90
47540;DHT22;33280;52.152;21.052;2023-05-25T03:01:50;13.20;99.90
47540;DHT22;33280;52.152;21.052;2023-05-25T03:04:17;13.20;99.90
47540;DHT22;33280;52.152;21.052;2023-05-25T03:06:44;13.20;99.90
47540;DHT22;33280;52.152;21.052;2023-05-25T03:09:11;13.20;99.90
47540;DHT22;33280;52.152;21.052;2023-05-25T03:11:38;13.30;99.90
47540;DHT22;33280;52.152;21.052;2023-05-25T03:14:06;13.30;99.90
47540;DHT22;33280;52.152;21.052;2023-05-25T03:16:33;13.30;99.90
47540;DHT22;33280;52.152;21.052;2023-05-25T03:19:02;13.40;99.90
47540;DHT22;33280;52.152;21.052;2023-05-25T03:21:31;13.30;99.90
47540;DHT22;33280;52.152;21.052;2023-05-25T03:23:58;13.30;99.90
47540;DHT22;33280;52.152;21.052;2023-05-25T03:26:25;13.30;99.90
47540;DHT22;33280;52.152;21.052;2023-05-25T03:28:52;13.40;99.90
47540;DHT22;33280;52.152;21.052;2023-05-25T03:31:20;13.30;99.90
47540;DHT22;33280;52.152;21.052;2023-05-25T03:33:48;13.30;99.90
47540;DHT22;33280;52.152;21.052;2023-05-25T03:36:14;13.20;99.90
47540;DHT22;33280;52.152;21.052;2023-05-25T03:38:43;13.10;99.90
47540;DHT22;33280;52.152;21.052;2023-05-25T03:41:10;13.10;99.90
47540;DHT22;33280;52.152;21.052;2023-05-25T03:43:37;13.20;99.90
47540;DHT22;33280;52.152;21.052;2023-05-25T03:46:04;13.20;99.90
47540;DHT22;33280;52.152;21.052;2023-05-25T03:48:31;13.20;99.90
47540;DHT22;33280;52.152;21.052;2023-05-25T03:50:58;13.30;99.90
47540;DHT22;33280;52.152;21.052;2023-05-25T03:53:25;13.20;99.90
47540;DHT22;33280;52.152;21.052;2023-05-25T03:55:52;13.30;99.90
47540;DHT22;33280;52.152;21.052;2023-05-25T03:58:19;13.40;99.90
47540;DHT22;33280;52.152;21.052;2023-05-25T04:00:46;13.40;99.90
47540;DHT22;33280;52.152;21.052;2023-05-25T04:03:16;13.40;99.90
47540;DHT22;33280;52.152;21.052;2023-05-25T04:05:43;13.40;99.90
47540;DHT22;33280;52.152;21.052;2023-05-25T04:08:15;13.40;99.90
47540;DHT22;33280;52.152;21.052;2023-05-25T04:10:46;13.50;99.90
47540;DHT22;33280;52.152;21.052;2023-05-25T04:13:13;13.40;99.90
47540;DHT22;33280;52.152;21.052;2023-05-25T04:15:40;13.30;99.90
47540;DHT22;33280;52.152;21.052;2023-05-25T04:18:07;13.40;99.90
47540;DHT22;33280;52.152;21.052;2023-05-25T04:20:35;13.30;99.90
47540;DHT22;33280;52.152;21.052;2023-05-25T04:23:03;13.30;99.90
47540;DHT22;33280;52.152;21.052;2023-05-25T04:25:30;13.30;99.90
47540;DHT22;33280;52.152;21.052;2023-05-25T04:27:58;13.30;99.90
47540;DHT22;33280;52.152;21.052;2023-05-25T04:30:25;13.30;99.90
47540;DHT22;33280;52.152;21.052;2023-05-25T04:32:52;13.50;99.90
47540;DHT22;33280;52.152;21.052;2023-05-25T04:35:20;13.70;99.90
47540;DHT22;33280;52.152;21.052;2023-05-25T04:37:47;13.80;99.90
47540;DHT22;33280;52.152;21.052;2023-05-25T04:40:14;13.80;99.90
47540;DHT22;33280;52.152;21.052;2023-05-25T04:42:41;13.80;99.90
47540;DHT22;33280;52.152;21.052;2023-05-25T04:45:09;13.80;99.90
47540;DHT22;33280;52.152;21.052;2023-05-25T04:47:36;13.80;99.90
47540;DHT22;33280;52.152;21.052;2023-05-25T04:50:08;13.90;99.90
47540;DHT22;33280;52.152;21.052;2023-05-25T04:52:36;13.80;99.90
47540;DHT22;33280;52.152;21.052;2023-05-25T04:55:03;13.80;99.90
47540;DHT22;33280;52.152;21.052;2023-05-25T04:57:30;13.80;99.90
47540;DHT22;33280;52.152;21.052;2023-05-25T04:59:57;13.60;99.90
47540;DHT22;33280;52.152;21.052;2023-05-25T05:02:25;13.50;99.90
47540;DHT22;33280;52.152;21.052;2023-05-25T05:04:52;13.70;99.90
47540;DHT22;33280;52.152;21.052;2023-05-25T05:07:19;13.60;99.90
47540;DHT22;33280;52.152;21.052;2023-05-25T05:09:48;13.50;99.90
47540;DHT22;33280;52.152;21.052;2023-05-25T05:12:15;13.50;99.90
47540;DHT22;33280;52.152;21.052;2023-05-25T05:14:41;13.70;99.90
47540;DHT22;33280;52.152;21.052;2023-05-25T05:17:09;13.70;99.90
47540;DHT22;33280;52.152;21.052;2023-05-25T05:19:37;13.70;99.90
47540;DHT22;33280;52.152;21.052;2023-05-25T05:22:04;13.80;99.90
47540;DHT22;33280;52.152;21.052;2023-05-25T05:24:31;13.80;99.90
47540;DHT22;33280;52.152;21.052;2023-05-25T05:26:57;13.60;99.90
47540;DHT22;33280;52.152;21.052;2023-05-25T05:29:25;13.70;99.90
47540;DHT22;33280;52.152;21.052;2023-05-25T05:31:54;13.60;99.90
47540;DHT22;33280;52.152;21.052;2023-05-25T05:34:22;13.60;99.90
47540;DHT22;33280;52.152;21.052;2023-05-25T05:36:49;13.60;99.90
47540;DHT22;33280;52.152;21.052;2023-05-25T05:39:25;13.60;99.90
47540;DHT22;33280;52.152;21.052;2023-05-25T05:41:53;13.70;99.90
47540;DHT22;33280;52.152;21.052;2023-05-25T05:44:21;13.80;99.90
47540;DHT22;33280;52.152;21.052;2023-05-25T05:46:51;13.90;99.90
47540;DHT22;33280;52.152;21.052;2023-05-25T05:49:18;14.00;99.90
47540;DHT22;33280;52.152;21.052;2023-05-25T05:51:45;14.10;99.90
47540;DHT22;33280;52.152;21.052;2023-05-25T05:54:12;14.10;99.90
47540;DHT22;33280;52.152;21.052;2023-05-25T05:56:39;14.00;99.90
47540;DHT22;33280;52.152;21.052;2023-05-25T05:59:06;14.00;99.90
47540;DHT22;33280;52.152;21.052;2023-05-25T06:01:34;14.00;99.90
47540;DHT22;33280;52.152;21.052;2023-05-25T06:04:04;14.10;99.90
47540;DHT22;33280;52.152;21.052;2023-05-25T06:06:32;14.10;99.90
47540;DHT22;33280;52.152;21.052;2023-05-25T06:09:01;14.00;99.90
47540;DHT22;33280;52.152;21.052;2023-05-25T06:11:30;14.10;99.90
47540;DHT22;33280;52.152;21.052;2023-05-25T06:14:00;14.10;99.90
47540;DHT22;33280;52.152;21.052;2023-05-25T06:16:28;14.00;99.90
47540;DHT22;33280;52.152;21.052;2023-05-25T06:18:55;14.10;99.90
47540;DHT22;33280;52.152;21.052;2023-05-25T06:21:22;14.20;99.90
47540;DHT22;33280;52.152;21.052;2023-05-25T06:23:49;14.30;99.90
47540;DHT22;33280;52.152;21.052;2023-05-25T06:26:16;14.20;99.90
47540;DHT22;33280;52.152;21.052;2023-05-25T06:28:43;14.10;99.90
47540;DHT22;33280;52.152;21.052;2023-05-25T06:31:12;14.20;99.90
47540;DHT22;33280;52.152;21.052;2023-05-25T06:33:39;14.10;99.90
47540;DHT22;33280;52.152;21.052;2023-05-25T06:36:08;14.30;99.90
47540;DHT22;33280;52.152;21.052;2023-05-25T06:38:35;14.30;99.90
47540;DHT22;33280;52.152;21.052;2023-05-25T06:41:05;14.40;99.90
47540;DHT22;33280;52.152;21.052;2023-05-25T06:43:35;14.50;99.90
47540;DHT22;33280;52.152;21.052;2023-05-25T06:46:02;14.60;99.90
47540;DHT22;33280;52.152;21.052;2023-05-25T06:48:29;14.70;99.90
47540;DHT22;33280;52.152;21.052;2023-05-25T06:50:56;14.70;99.90
47540;DHT22;33280;52.152;21.052;2023-05-25T06:53:23;14.60;99.90
47540;DHT22;33280;52.152;21.052;2023-05-25T06:55:50;14.60;99.90
47540;DHT22;33280;52.152;21.052;2023-05-25T06:58:17;14.60;99.90
47540;DHT22;33280;52.152;21.052;2023-05-25T07:00:44;14.60;99.90
47540;DHT22;33280;52.152;21.052;2023-05-25T07:03:12;14.70;99.90
47540;DHT22;33280;52.152;21.052;2023-05-25T07:05:39;14.80;99.90
47540;DHT22;33280;52.152;21.052;2023-05-25T07:08:07;14.90;99.90
47540;DHT22;33280;52.152;21.052;2023-05-25T07:10:34;14.90;99.90
47540;DHT22;33280;52.152;21.052;2023-05-25T07:13:01;14.80;99.90
47540;DHT22;33280;52.152;21.052;2023-05-25T07:15:28;14.80;99.90
47540;DHT22;33280;52.152;21.052;2023-05-25T07:17:54;14.80;99.90
47540;DHT22;33280;52.152;21.052;2023-05-25T07:20:23;14.80;99.90
47540;DHT22;33280;52.152;21.052;2023-05-25T07:22:50;14.80;99.90
47540;DHT22;33280;52.152;21.052;2023-05-25T07:25:19;14.80;99.90
47540;DHT22;33280;52.152;21.052;2023-05-25T07:27:48;15.00;99.90
47540;DHT22;33280;52.152;21.052;2023-05-25T07:30:16;15.20;99.90
47540;DHT22;33280;52.152;21.052;2023-05-25T07:32:43;15.20;99.90
47540;DHT22;33280;52.152;21.052;2023-05-25T07:35:10;15.30;99.90
47540;DHT22;33280;52.152;21.052;2023-05-25T07:37:37;15.20;99.90
47540;DHT22;33280;52.152;21.052;2023-05-25T07:40:04;15.30;99.90
47540;DHT22;33280;52.152;21.052;2023-05-25T07:42:32;15.30;99.90
47540;DHT22;33280;52.152;21.052;2023-05-25T07:45:01;15.20;99.90
47540;DHT22;33280;52.152;21.052;2023-05-25T07:47:28;15.20;99.90
47540;DHT22;33280;52.152;21.052;2023-05-25T07:49:55;15.50;99.90
47540;DHT22;33280;52.152;21.052;2023-05-25T07:52:22;15.70;99.90
47540;DHT22;33280;52.152;21.052;2023-05-25T07:54:49;15.70;99.90
47540;DHT22;33280;52.152;21.052;2023-05-25T07:57:16;15.60;99.90
47540;DHT22;33280;52.152;21.052;2023-05-25T07:59:43;15.70;99.90
47540;DHT22;33280;52.152;21.052;2023-05-25T08:02:10;15.80;99.90
47540;DHT22;33280;52.152;21.052;2023-05-25T08:04:37;15.90;99.90
47540;DHT22;33280;52.152;21.052;2023-05-25T08:07:05;15.90;99.90
47540;DHT22;33280;52.152;21.052;2023-05-25T08:09:32;15.90;99.90
47540;DHT22;33280;52.152;21.052;2023-05-25T08:11:59;16.00;99.90
47540;DHT22;33280;52.152;21.052;2023-05-25T08:14:46;16.10;99.90
47540;DHT22;33280;52.152;21.052;2023-05-25T08:17:13;16.30;99.90
47540;DHT22;33280;52.152;21.052;2023-05-25T08:19:41;16.30;99.90
47540;DHT22;33280;52.152;21.052;2023-05-25T08:22:07;16.40;99.90
47540;DHT22;33280;52.152;21.052;2023-05-25T08:24:34;16.50;99.90
47540;DHT22;33280;52.152;21.052;2023-05-25T08:27:01;16.30;99.90
47540;DHT22;33280;52.152;21.052;2023-05-25T08:29:29;16.40;99.90
47540;DHT22;33280;52.152;21.052;2023-05-25T08:31:57;16.40;99.90
47540;DHT22;33280;52.152;21.052;2023-05-25T08:34:24;16.50;99.90
47540;DHT22;33280;52.152;21.052;2023-05-25T08:36:51;16.70;99.90
47540;DHT22;33280;52.152;21.052;2023-05-25T08:39:18;16.40;99.90
47540;DHT22;33280;52.152;21.052;2023-05-25T08:41:45;16.60;99.90
47540;DHT22;33280;52.152;21.052;2023-05-25T08:44:12;16.90;99.90
47540;DHT22;33280;52.152;21.052;2023-05-25T08:46:40;16.70;99.90
47540;DHT22;33280;52.152;21.052;2023-05-25T08:49:12;16.80;99.90
47540;DHT22;33280;52.152;21.052;2023-05-25T08:51:51;17.00;99.90
47540;DHT22;33280;52.152;21.052;2023-05-25T08:54:35;17.10;99.90
47540;DHT22;33280;52.152;21.052;2023-05-25T08:57:22;17.20;99.90
47540;DHT22;33280;52.152;21.052;2023-05-25T08:59:55;17.10;99.90
47540;DHT22;33280;52.152;21.052;2023-05-25T09:05:01;17.00;99.90
47540;DHT22;33280;52.152;21.052;2023-05-25T09:07:29;17.10;99.90
47540;DHT22;33280;52.152;21.052;2023-05-25T09:09:56;17.30;99.90
47540;DHT22;33280;52.152;21.052;2023-05-25T09:12:24;17.50;99.90
47540;DHT22;33280;52.152;21.052;2023-05-25T09:14:52;17.60;99.90
47540;DHT22;33280;52.152;21.052;2023-05-25T09:17:20;17.10;99.90
47540;DHT22;33280;52.152;21.052;2023-05-25T09:19:47;17.20;99.90
47540;DHT22;33280;52.152;21.052;2023-05-25T09:22:14;17.00;99.90
47540;DHT22;33280;52.152;21.052;2023-05-25T09:24:43;17.00;99.90
47540;DHT22;33280;52.152;21.052;2023-05-25T09:27:12;17.30;99.90
47540;DHT22;33280;52.152;21.052;2023-05-25T09:29:42;17.50;99.90
47540;DHT22;33280;52.152;21.052;2023-05-25T09:32:10;17.60;99.90
47540;DHT22;33280;52.152;21.052;2023-05-25T09:34:37;17.70;99.90
47540;DHT22;33280;52.152;21.052;2023-05-25T09:37:15;18.00;99.90
47540;DHT22;33280;52.152;21.052;2023-05-25T09:39:43;18.10;99.90
47540;DHT22;33280;52.152;21.052;2023-05-25T09:42:11;18.00;99.90
47540;DHT22;33280;52.152;21.052;2023-05-25T09:44:39;17.80;99.90
47540;DHT22;33280;52.152;21.052;2023-05-25T09:47:08;17.80;99.90
47540;DHT22;33280;52.152;21.052;2023-05-25T09:49:35;17.80;99.90
47540;DHT22;33280;52.152;21.052;2023-05-25T09:52:02;17.20;99.90
47540;DHT22;33280;52.152;21.052;2023-05-25T09:54:30;17.10;99.90
47540;DHT22;33280;52.152;21.052;2023-05-25T09:57:01;17.20;99.90
47540;DHT22;33280;52.152;21.052;2023-05-25T09:59:28;17.20;99.90
47540;DHT22;33280;52.152;21.052;2023-05-25T10:01:56;17.30;99.90
47540;DHT22;33280;52.152;21.052;2023-05-25T10:04:24;17.20;99.90
47540;DHT22;33280;52.152;21.052;2023-05-25T10:06:52;17.40;99.90
47540;DHT22;33280;52.152;21.052;2023-05-25T10:09:19;17.40;99.90
47540;DHT22;33280;52.152;21.052;2023-05-25T10:11:50;17.70;99.90
47540;DHT22;33280;52.152;21.052;2023-05-25T10:14:25;17.80;99.90
47540;DHT22;33280;52.152;21.052;2023-05-25T10:17:13;18.00;99.90
47540;DHT22;33280;52.152;21.052;2023-05-25T10:22:19;18.30;99.90
47540;DHT22;33280;52.152;21.052;2023-05-25T10:25:11;18.50;99.90
47540;DHT22;33280;52.152;21.052;2023-05-25T10:27:46;18.70;99.90
47540;DHT22;33280;52.152;21.052;2023-05-25T10:30:14;18.60;99.90
47540;DHT22;33280;52.152;21.052;2023-05-25T10:32:43;18.80;99.90
47540;DHT22;33280;52.152;21.052;2023-05-25T10:35:11;18.50;99.90
47540;DHT22;33280;52.152;21.052;2023-05-25T10:37:41;18.60;99.90
47540;DHT22;33280;52.152;21.052;2023-05-25T10:40:08;19.00;99.90
47540;DHT22;33280;52.152;21.052;2023-05-25T10:42:36;19.80;99.90
47540;DHT22;33280;52.152;21.052;2023-05-25T10:45:06;20.70;99.90
47540;DHT22;33280;52.152;21.052;2023-05-25T10:47:36;21.80;99.90
47540;DHT22;33280;52.152;21.052;2023-05-25T10:50:04;23.10;99.90
47540;DHT22;33280;52.152;21.052;2023-05-25T10:52:31;24.20;99.90
47540;DHT22;33280;52.152;21.052;2023-05-25T10:54:59;24.80;99.90
47540;DHT22;33280;52.152;21.052;2023-05-25T10:57:32;24.90;99.90
47540;DHT22;33280;52.152;21.052;2023-05-25T11:00:04;25.20;99.90
47540;DHT22;33280;52.152;21.052;2023-05-25T11:02:50;25.20;99.90
47540;DHT22;33280;52.152;21.052;2023-05-25T11:07:59;25.60;99.90
47540;DHT22;33280;52.152;21.052;2023-05-25T11:16:17;26.50;99.90
47540;DHT22;33280;52.152;21.052;2023-05-25T11:18:55;27.20;99.90
47540;DHT22;33280;52.152;21.052;2023-05-25T11:24:02;27.50;99.90
47540;DHT22;33280;52.152;21.052;2023-05-25T11:26:32;28.00;99.90
47540;DHT22;33280;52.152;21.052;2023-05-25T11:29:05;28.80;99.90
47540;DHT22;33280;52.152;21.052;2023-05-25T11:31:37;29.50;99.90
47540;DHT22;33280;52.152;21.052;2023-05-25T11:34:10;29.10;99.90
47540;DHT22;33280;52.152;21.052;2023-05-25T11:36:37;29.20;99.90
47540;DHT22;33280;52.152;21.052;2023-05-25T11:39:05;29.60;99.90
47540;DHT22;33280;52.152;21.052;2023-05-25T11:41:52;29.30;99.90
47540;DHT22;33280;52.152;21.052;2023-05-25T11:44:28;29.80;99.00
47540;DHT22;33280;52.152;21.052;2023-05-25T11:46:59;29.70;97.70
47540;DHT22;33280;52.152;21.052;2023-05-25T11:49:27;29.10;95.80
47540;DHT22;33280;52.152;21.052;2023-05-25T11:51:55;28.40;97.00
47540;DHT22;33280;52.152;21.052;2023-05-25T11:54:25;29.00;96.20
47540;DHT22;33280;52.152;21.052;2023-05-25T11:56:53;29.50;96.10
47540;DHT22;33280;52.152;21.052;2023-05-25T11:59:24;29.40;96.70
47540;DHT22;33280;52.152;21.052;2023-05-25T12:01:56;28.60;95.90
47540;DHT22;33280;52.152;21.052;2023-05-25T12:04:24;28.60;95.90
47540;DHT22;33280;52.152;21.052;2023-05-25T12:06:52;27.60;97.10
47540;DHT22;33280;52.152;21.052;2023-05-25T12:09:20;27.70;97.80
47540;DHT22;33280;52.152;21.052;2023-05-25T12:11:50;27.60;97.90
47540;DHT22;33280;52.152;21.052;2023-05-25T12:14:17;27.80;97.50
47540;DHT22;33280;52.152;21.052;2023-05-25T12:16:46;28.00;98.20
47540;DHT22;33280;52.152;21.052;2023-05-25T12:19:13;28.50;97.90
47540;DHT22;33280;52.152;21.052;2023-05-25T12:21:40;28.60;96.70
47540;DHT22;33280;52.152;21.052;2023-05-25T12:24:08;28.10;96.00
47540;DHT22;33280;52.152;21.052;2023-05-25T12:26:52;28.40;97.20
47540;DHT22;33280;52.152;21.052;2023-05-25T12:29:27;28.50;95.20
47540;DHT22;33280;52.152;21.052;2023-05-25T12:32:02;27.90;96.70
47540;DHT22;33280;52.152;21.052;2023-05-25T12:34:30;28.30;95.50
47540;DHT22;33280;52.152;21.052;2023-05-25T12:36:57;28.20;95.00
47540;DHT22;33280;52.152;21.052;2023-05-25T12:41:58;28.80;95.50
47540;DHT22;33280;52.152;21.052;2023-05-25T12:44:32;27.70;96.30
47540;DHT22;33280;52.152;21.052;2023-05-25T12:47:22;27.80;96.00
47540;DHT22;33280;52.152;21.052;2023-05-25T12:49:51;27.80;96.70
47540;DHT22;33280;52.152;21.052;2023-05-25T12:52:41;27.80;97.20
47540;DHT22;33280;52.152;21.052;2023-05-25T12:55:22;27.30;97.40
47540;DHT22;33280;52.152;21.052;2023-05-25T12:57:54;27.90;97.20
47540;DHT22;33280;52.152;21.052;2023-05-25T13:00:25;27.70;96.60
47540;DHT22;33280;52.152;21.052;2023-05-25T13:02:53;27.70;97.30
47540;DHT22;33280;52.152;21.052;2023-05-25T13:05:22;28.10;96.60
47540;DHT22;33280;52.152;21.052;2023-05-25T13:07:50;28.50;96.20
47540;DHT22;33280;52.152;21.052;2023-05-25T13:10:18;28.40;95.90
47540;DHT22;33280;52.152;21.052;2023-05-25T13:12:46;28.60;96.10
47540;DHT22;33280;52.152;21.052;2023-05-25T13:15:15;29.00;96.80
47540;DHT22;33280;52.152;21.052;2023-05-25T13:17:43;28.20;95.80
47540;DHT22;33280;52.152;21.052;2023-05-25T13:20:11;28.50;95.90
47540;DHT22;33280;52.152;21.052;2023-05-25T13:22:40;28.60;95.50
47540;DHT22;33280;52.152;21.052;2023-05-25T13:25:08;28.80;95.90
47540;DHT22;33280;52.152;21.052;2023-05-25T13:27:35;28.60;95.80
47540;DHT22;33280;52.152;21.052;2023-05-25T13:30:05;28.90;95.30
47540;DHT22;33280;52.152;21.052;2023-05-25T13:32:33;28.90;94.80
47540;DHT22;33280;52.152;21.052;2023-05-25T13:35:00;29.20;95.20
47540;DHT22;33280;52.152;21.052;2023-05-25T13:37:27;29.00;94.80
47540;DHT22;33280;52.152;21.052;2023-05-25T13:39:54;28.70;95.50
47540;DHT22;33280;52.152;21.052;2023-05-25T13:42:21;27.80;96.00
47540;DHT22;33280;52.152;21.052;2023-05-25T13:44:48;27.40;98.00
47540;DHT22;33280;52.152;21.052;2023-05-25T13:47:16;26.60;98.20
47540;DHT22;33280;52.152;21.052;2023-05-25T13:49:43;26.50;99.90
47540;DHT22;33280;52.152;21.052;2023-05-25T13:52:10;26.60;99.90
47540;DHT22;33280;52.152;21.052;2023-05-25T13:54:37;26.50;99.90
47540;DHT22;33280;52.152;21.052;2023-05-25T13:57:06;26.50;99.90
47540;DHT22;33280;52.152;21.052;2023-05-25T13:59:33;26.50;99.90
47540;DHT22;33280;52.152;21.052;2023-05-25T14:02:00;26.40;99.90
47540;DHT22;33280;52.152;21.052;2023-05-25T14:04:27;26.30;99.90
47540;DHT22;33280;52.152;21.052;2023-05-25T14:06:54;26.60;99.90
47540;DHT22;33280;52.152;21.052;2023-05-25T14:09:26;27.20;99.90
47540;DHT22;33280;52.152;21.052;2023-05-25T14:11:53;27.90;98.60
47540;DHT22;33280;52.152;21.052;2023-05-25T14:14:19;28.50;98.10
47540;DHT22;33280;52.152;21.052;2023-05-25T14:16:58;28.90;96.20
47540;DHT22;33280;52.152;21.052;2023-05-25T14:19:26;28.40;95.80
47540;DHT22;33280;52.152;21.052;2023-05-25T14:21:53;28.20;97.00
47540;DHT22;33280;52.152;21.052;2023-05-25T14:24:23;27.40;96.40
47540;DHT22;33280;52.152;21.052;2023-05-25T14:26:50;27.20;98.80
47540;DHT22;33280;52.152;21.052;2023-05-25T14:29:17;28.00;98.90
47540;DHT22;33280;52.152;21.052;2023-05-25T14:31:44;28.60;96.80
47540;DHT22;33280;52.152;21.052;2023-05-25T14:34:11;27.90;95.70
47540;DHT22;33280;52.152;21.052;2023-05-25T14:36:39;27.30;95.60
47540;DHT22;33280;52.152;21.052;2023-05-25T14:39:05;26.60;96.50
47540;DHT22;33280;52.152;21.052;2023-05-25T14:41:32;26.80;97.70
47540;DHT22;33280;52.152;21.052;2023-05-25T14:43:59;27.50;97.80
47540;DHT22;33280;52.152;21.052;2023-05-25T14:46:26;27.40;96.50
47540;DHT22;33280;52.152;21.052;2023-05-25T14:48:53;27.70;97.60
47540;DHT22;33280;52.152;21.052;2023-05-25T14:51:20;27.70;95.90
47540;DHT22;33280;52.152;21.052;2023-05-25T14:53:47;27.50;97.20
47540;DHT22;33280;52.152;21.052;2023-05-25T14:56:18;27.40;97.60
47540;DHT22;33280;52.152;21.052;2023-05-25T14:58:45;26.40;98.10
47540;DHT22;33280;52.152;21.052;2023-05-25T15:01:12;26.30;98.60
47540;DHT22;33280;52.152;21.052;2023-05-25T15:03:39;25.90;99.00
47540;DHT22;33280;52.152;21.052;2023-05-25T15:06:06;25.70;99.90
47540;DHT22;33280;52.152;21.052;2023-05-25T15:08:33;25.80;99.90
47540;DHT22;33280;52.152;21.052;2023-05-25T15:11:00;25.80;99.90
47540;DHT22;33280;52.152;21.052;2023-05-25T15:13:27;25.40;99.90
47540;DHT22;33280;52.152;21.052;2023-05-25T15:15:54;25.40;99.90
47540;DHT22;33280;52.152;21.052;2023-05-25T15:18:23;25.70;99.90
47540;DHT22;33280;52.152;21.052;2023-05-25T15:20:50;26.30;99.40
47540;DHT22;33280;52.152;21.052;2023-05-25T15:23:17;27.10;98.50
47540;DHT22;33280;52.152;21.052;2023-05-25T15:25:44;28.00;96.40
47540;DHT22;33280;52.152;21.052;2023-05-25T15:28:11;27.20;96.70
47540;DHT22;33280;52.152;21.052;2023-05-25T15:30:38;26.50;97.50
47540;DHT22;33280;52.152;21.052;2023-05-25T15:33:05;26.40;98.20
47540;DHT22;33280;52.152;21.052;2023-05-25T15:35:32;25.90;99.10
47540;DHT22;33280;52.152;21.052;2023-05-25T15:38:00;25.70;99.70
47540;DHT22;33280;52.152;21.052;2023-05-25T15:40:27;25.80;99.90
47540;DHT22;33280;52.152;21.052;2023-05-25T15:42:54;26.50;99.90
47540;DHT22;33280;52.152;21.052;2023-05-25T15:45:21;26.60;99.20